sensor_id;sensor_type;location;lat;lon;timestamp;P1;durP1;ratioP1;P2;durP2;ratioP2
68870;SDS011;55906;52.278;6.808;2023-03-03T00:01:00;37.17;;;18.53;;
68870;SDS011;55906;52.278;6.808;2023-03-03T00:03:27;38.03;;;18.13;;
68870;SDS011;55906;52.278;6.808;2023-03-03T00:05:53;37.10;;;17.13;;
68870;SDS011;55906;52.278;6.808;2023-03-03T00:08:20;39.37;;;17.60;;
68870;SDS011;55906;52.278;6.808;2023-03-03T00:10:47;36.28;;;16.05;;
68870;SDS011;55906;52.278;6.808;2023-03-03T00:13:15;28.75;;;13.27;;
68870;SDS011;55906;52.278;6.808;2023-03-03T00:15:44;28.70;;;15.23;;
68870;SDS011;55906;52.278;6.808;2023-03-03T00:18:27;34.85;;;15.73;;
68870;SDS011;55906;52.278;6.808;2023-03-03T00:20:58;29.77;;;14.98;;
68870;SDS011;55906;52.278;6.808;2023-03-03T00:23:28;33.85;;;15.27;;
68870;SDS011;55906;52.278;6.808;2023-03-03T00:25:56;27.07;;;14.87;;
68870;SDS011;55906;52.278;6.808;2023-03-03T00:28:26;31.73;;;15.13;;
68870;SDS011;55906;52.278;6.808;2023-03-03T00:30:56;30.80;;;15.75;;
68870;SDS011;55906;52.278;6.808;2023-03-03T00:33:25;37.63;;;16.63;;
68870;SDS011;55906;52.278;6.808;2023-03-03T00:35:56;32.30;;;15.05;;
68870;SDS011;55906;52.278;6.808;2023-03-03T00:38:33;37.53;;;18.20;;
68870;SDS011;55906;52.278;6.808;2023-03-03T00:41:00;32.72;;;15.30;;
68870;SDS011;55906;52.278;6.808;2023-03-03T00:43:32;33.85;;;16.58;;
68870;SDS011;55906;52.278;6.808;2023-03-03T00:46:02;35.45;;;16.00;;
68870;SDS011;55906;52.278;6.808;2023-03-03T00:48:29;38.33;;;16.75;;
68870;SDS011;55906;52.278;6.808;2023-03-03T00:51:08;31.00;;;14.40;;
68870;SDS011;55906;52.278;6.808;2023-03-03T00:53:45;39.10;;;16.77;;
68870;SDS011;55906;52.278;6.808;2023-03-03T00:56:12;34.75;;;16.65;;
68870;SDS011;55906;52.278;6.808;2023-03-03T00:58:39;35.93;;;17.23;;
68870;SDS011;55906;52.278;6.808;2023-03-03T01:01:09;34.25;;;15.93;;
68870;SDS011;55906;52.278;6.808;2023-03-03T01:03:36;39.15;;;17.25;;
68870;SDS011;55906;52.278;6.808;2023-03-03T01:06:03;32.00;;;16.98;;
68870;SDS011;55906;52.278;6.808;2023-03-03T01:08:29;34.15;;;15.50;;
68870;SDS011;55906;52.278;6.808;2023-03-03T01:10:57;31.33;;;15.20;;
68870;SDS011;55906;52.278;6.808;2023-03-03T01:13:26;34.33;;;16.27;;
68870;SDS011;55906;52.278;6.808;2023-03-03T01:15:55;33.23;;;17.17;;
68870;SDS011;55906;52.278;6.808;2023-03-03T01:18:23;41.55;;;18.55;;
68870;SDS011;55906;52.278;6.808;2023-03-03T01:20:50;37.13;;;17.80;;
68870;SDS011;55906;52.278;6.808;2023-03-03T01:23:17;39.17;;;17.60;;
68870;SDS011;55906;52.278;6.808;2023-03-03T01:25:43;38.17;;;16.58;;
68870;SDS011;55906;52.278;6.808;2023-03-03T01:28:10;34.05;;;16.17;;
68870;SDS011;55906;52.278;6.808;2023-03-03T01:30:37;42.42;;;18.70;;
68870;SDS011;55906;52.278;6.808;2023-03-03T01:33:04;33.17;;;17.02;;
68870;SDS011;55906;52.278;6.808;2023-03-03T01:35:31;31.08;;;16.73;;
68870;SDS011;55906;52.278;6.808;2023-03-03T01:38:00;32.78;;;15.80;;
68870;SDS011;55906;52.278;6.808;2023-03-03T01:40:27;30.07;;;14.53;;
68870;SDS011;55906;52.278;6.808;2023-03-03T01:42:55;33.03;;;15.68;;
68870;SDS011;55906;52.278;6.808;2023-03-03T01:45:25;30.73;;;14.10;;
68870;SDS011;55906;52.278;6.808;2023-03-03T01:47:55;32.67;;;15.73;;
68870;SDS011;55906;52.278;6.808;2023-03-03T01:50:28;32.83;;;16.05;;
68870;SDS011;55906;52.278;6.808;2023-03-03T01:53:02;27.05;;;14.07;;
68870;SDS011;55906;52.278;6.808;2023-03-03T01:55:33;34.33;;;17.23;;
68870;SDS011;55906;52.278;6.808;2023-03-03T01:58:01;35.88;;;17.65;;
68870;SDS011;55906;52.278;6.808;2023-03-03T02:00:31;30.60;;;14.75;;
68870;SDS011;55906;52.278;6.808;2023-03-03T02:03:01;31.10;;;15.32;;
68870;SDS011;55906;52.278;6.808;2023-03-03T02:05:28;33.57;;;15.93;;
68870;SDS011;55906;52.278;6.808;2023-03-03T02:07:56;28.58;;;14.38;;
68870;SDS011;55906;52.278;6.808;2023-03-03T02:10:23;28.48;;;15.10;;
68870;SDS011;55906;52.278;6.808;2023-03-03T02:12:51;25.83;;;13.90;;
68870;SDS011;55906;52.278;6.808;2023-03-03T02:15:19;27.17;;;14.05;;
68870;SDS011;55906;52.278;6.808;2023-03-03T02:17:48;29.38;;;15.30;;
68870;SDS011;55906;52.278;6.808;2023-03-03T02:20:19;25.08;;;13.23;;
68870;SDS011;55906;52.278;6.808;2023-03-03T02:22:59;27.95;;;14.95;;
68870;SDS011;55906;52.278;6.808;2023-03-03T02:25:33;38.50;;;18.58;;
68870;SDS011;55906;52.278;6.808;2023-03-03T02:28:09;34.25;;;17.30;;
68870;SDS011;55906;52.278;6.808;2023-03-03T02:30:37;31.67;;;16.40;;
68870;SDS011;55906;52.278;6.808;2023-03-03T02:33:04;28.60;;;15.05;;
68870;SDS011;55906;52.278;6.808;2023-03-03T02:35:33;36.40;;;16.45;;
68870;SDS011;55906;52.278;6.808;2023-03-03T02:38:02;36.97;;;17.37;;
68870;SDS011;55906;52.278;6.808;2023-03-03T02:40:35;40.15;;;17.50;;
68870;SDS011;55906;52.278;6.808;2023-03-03T02:43:05;38.47;;;18.02;;
68870;SDS011;55906;52.278;6.808;2023-03-03T02:45:39;34.60;;;16.40;;
68870;SDS011;55906;52.278;6.808;2023-03-03T02:48:07;35.90;;;17.98;;
68870;SDS011;55906;52.278;6.808;2023-03-03T02:50:34;31.95;;;16.05;;
68870;SDS011;55906;52.278;6.808;2023-03-03T02:53:01;31.50;;;16.25;;
68870;SDS011;55906;52.278;6.808;2023-03-03T02:55:27;35.90;;;16.23;;
68870;SDS011;55906;52.278;6.808;2023-03-03T02:57:54;33.60;;;16.42;;
68870;SDS011;55906;52.278;6.808;2023-03-03T03:00:21;32.25;;;16.27;;
68870;SDS011;55906;52.278;6.808;2023-03-03T03:02:48;36.30;;;17.27;;
68870;SDS011;55906;52.278;6.808;2023-03-03T03:05:15;31.92;;;15.70;;
68870;SDS011;55906;52.278;6.808;2023-03-03T03:07:42;33.22;;;16.98;;
68870;SDS011;55906;52.278;6.808;2023-03-03T03:10:09;30.85;;;15.15;;
68870;SDS011;55906;52.278;6.808;2023-03-03T03:12:36;29.60;;;15.52;;
68870;SDS011;55906;52.278;6.808;2023-03-03T03:15:03;30.63;;;16.00;;
68870;SDS011;55906;52.278;6.808;2023-03-03T03:17:30;32.38;;;15.05;;
68870;SDS011;55906;52.278;6.808;2023-03-03T03:19:58;28.73;;;16.00;;
68870;SDS011;55906;52.278;6.808;2023-03-03T03:22:24;30.23;;;15.10;;
68870;SDS011;55906;52.278;6.808;2023-03-03T03:24:51;31.05;;;15.75;;
68870;SDS011;55906;52.278;6.808;2023-03-03T03:27:18;35.50;;;16.70;;
68870;SDS011;55906;52.278;6.808;2023-03-03T03:29:44;27.33;;;14.55;;
68870;SDS011;55906;52.278;6.808;2023-03-03T03:32:11;29.00;;;14.95;;
68870;SDS011;55906;52.278;6.808;2023-03-03T03:34:37;27.88;;;15.10;;
68870;SDS011;55906;52.278;6.808;2023-03-03T03:37:05;31.48;;;16.27;;
68870;SDS011;55906;52.278;6.808;2023-03-03T03:39:33;33.28;;;16.80;;
68870;SDS011;55906;52.278;6.808;2023-03-03T03:42:00;37.47;;;18.02;;
68870;SDS011;55906;52.278;6.808;2023-03-03T03:44:27;27.13;;;13.53;;
68870;SDS011;55906;52.278;6.808;2023-03-03T03:46:53;24.23;;;13.93;;
68870;SDS011;55906;52.278;6.808;2023-03-03T03:49:20;38.50;;;16.98;;
68870;SDS011;55906;52.278;6.808;2023-03-03T03:51:47;29.00;;;15.57;;
68870;SDS011;55906;52.278;6.808;2023-03-03T03:54:15;33.63;;;15.77;;
68870;SDS011;55906;52.278;6.808;2023-03-03T03:56:41;29.08;;;14.80;;
68870;SDS011;55906;52.278;6.808;2023-03-03T03:59:08;25.65;;;13.50;;
68870;SDS011;55906;52.278;6.808;2023-03-03T04:01:34;24.55;;;13.35;;
68870;SDS011;55906;52.278;6.808;2023-03-03T04:04:01;32.22;;;15.57;;
68870;SDS011;55906;52.278;6.808;2023-03-03T04:06:28;29.65;;;15.57;;
68870;SDS011;55906;52.278;6.808;2023-03-03T04:08:54;26.17;;;14.00;;
68870;SDS011;55906;52.278;6.808;2023-03-03T04:11:22;28.20;;;15.40;;
68870;SDS011;55906;52.278;6.808;2023-03-03T04:13:49;33.75;;;17.75;;
68870;SDS011;55906;52.278;6.808;2023-03-03T04:16:16;28.00;;;13.33;;
68870;SDS011;55906;52.278;6.808;2023-03-03T04:18:42;25.35;;;14.02;;
68870;SDS011;55906;52.278;6.808;2023-03-03T04:21:10;26.00;;;13.88;;
68870;SDS011;55906;52.278;6.808;2023-03-03T04:23:37;25.35;;;13.50;;
68870;SDS011;55906;52.278;6.808;2023-03-03T04:26:04;28.38;;;14.68;;
68870;SDS011;55906;52.278;6.808;2023-03-03T04:28:32;30.48;;;15.85;;
68870;SDS011;55906;52.278;6.808;2023-03-03T04:30:59;26.38;;;14.27;;
68870;SDS011;55906;52.278;6.808;2023-03-03T04:33:25;29.60;;;15.23;;
68870;SDS011;55906;52.278;6.808;2023-03-03T04:35:52;25.98;;;14.30;;
68870;SDS011;55906;52.278;6.808;2023-03-03T04:38:19;27.92;;;13.77;;
68870;SDS011;55906;52.278;6.808;2023-03-03T04:40:45;25.63;;;13.67;;
68870;SDS011;55906;52.278;6.808;2023-03-03T04:43:13;21.30;;;12.07;;
68870;SDS011;55906;52.278;6.808;2023-03-03T04:45:41;22.83;;;12.13;;
68870;SDS011;55906;52.278;6.808;2023-03-03T04:48:08;25.33;;;13.98;;
68870;SDS011;55906;52.278;6.808;2023-03-03T04:50:35;26.35;;;14.50;;
68870;SDS011;55906;52.278;6.808;2023-03-03T04:53:01;24.55;;;13.68;;
68870;SDS011;55906;52.278;6.808;2023-03-03T04:55:28;26.88;;;14.27;;
68870;SDS011;55906;52.278;6.808;2023-03-03T04:57:55;29.70;;;14.57;;
68870;SDS011;55906;52.278;6.808;2023-03-03T05:00:21;29.98;;;13.70;;
68870;SDS011;55906;52.278;6.808;2023-03-03T05:02:49;25.27;;;13.90;;
68870;SDS011;55906;52.278;6.808;2023-03-03T05:05:16;27.80;;;13.97;;
68870;SDS011;55906;52.278;6.808;2023-03-03T05:07:43;27.13;;;14.20;;
68870;SDS011;55906;52.278;6.808;2023-03-03T05:10:10;26.17;;;13.77;;
68870;SDS011;55906;52.278;6.808;2023-03-03T05:12:37;25.42;;;14.23;;
68870;SDS011;55906;52.278;6.808;2023-03-03T05:15:04;26.70;;;13.98;;
68870;SDS011;55906;52.278;6.808;2023-03-03T05:17:32;28.25;;;14.40;;
68870;SDS011;55906;52.278;6.808;2023-03-03T05:20:00;27.30;;;13.15;;
68870;SDS011;55906;52.278;6.808;2023-03-03T05:22:26;25.03;;;15.33;;
68870;SDS011;55906;52.278;6.808;2023-03-03T05:24:53;23.52;;;12.88;;
68870;SDS011;55906;52.278;6.808;2023-03-03T05:27:20;22.65;;;12.95;;
68870;SDS011;55906;52.278;6.808;2023-03-03T05:29:46;25.70;;;12.60;;
68870;SDS011;55906;52.278;6.808;2023-03-03T05:32:13;28.65;;;14.85;;
68870;SDS011;55906;52.278;6.808;2023-03-03T05:34:39;22.88;;;13.77;;
68870;SDS011;55906;52.278;6.808;2023-03-03T05:37:07;22.88;;;12.45;;
68870;SDS011;55906;52.278;6.808;2023-03-03T05:39:34;28.70;;;13.73;;
68870;SDS011;55906;52.278;6.808;2023-03-03T05:42:01;25.92;;;13.75;;
68870;SDS011;55906;52.278;6.808;2023-03-03T05:44:28;27.08;;;14.38;;
68870;SDS011;55906;52.278;6.808;2023-03-03T05:46:54;23.33;;;12.10;;
68870;SDS011;55906;52.278;6.808;2023-03-03T05:49:23;23.10;;;12.35;;
68870;SDS011;55906;52.278;6.808;2023-03-03T05:51:49;23.52;;;11.93;;
68870;SDS011;55906;52.278;6.808;2023-03-03T05:54:18;24.97;;;12.70;;
68870;SDS011;55906;52.278;6.808;2023-03-03T05:56:44;24.92;;;12.80;;
68870;SDS011;55906;52.278;6.808;2023-03-03T05:59:11;27.00;;;12.32;;
68870;SDS011;55906;52.278;6.808;2023-03-03T06:01:38;29.75;;;14.77;;
68870;SDS011;55906;52.278;6.808;2023-03-03T06:04:04;25.08;;;13.65;;
68870;SDS011;55906;52.278;6.808;2023-03-03T06:06:31;30.27;;;13.45;;
68870;SDS011;55906;52.278;6.808;2023-03-03T06:08:58;23.05;;;12.60;;
68870;SDS011;55906;52.278;6.808;2023-03-03T06:11:26;29.17;;;13.87;;
68870;SDS011;55906;52.278;6.808;2023-03-03T06:13:52;26.92;;;13.40;;
68870;SDS011;55906;52.278;6.808;2023-03-03T06:16:19;25.15;;;12.93;;
68870;SDS011;55906;52.278;6.808;2023-03-03T06:18:46;23.03;;;11.97;;
68870;SDS011;55906;52.278;6.808;2023-03-03T06:21:12;25.88;;;12.98;;
68870;SDS011;55906;52.278;6.808;2023-03-03T06:23:39;22.75;;;11.98;;
68870;SDS011;55906;52.278;6.808;2023-03-03T06:26:06;26.25;;;12.80;;
68870;SDS011;55906;52.278;6.808;2023-03-03T06:28:34;26.02;;;12.95;;
68870;SDS011;55906;52.278;6.808;2023-03-03T06:31:01;23.90;;;12.52;;
68870;SDS011;55906;52.278;6.808;2023-03-03T06:33:27;24.55;;;12.52;;
68870;SDS011;55906;52.278;6.808;2023-03-03T06:35:54;24.37;;;11.90;;
68870;SDS011;55906;52.278;6.808;2023-03-03T06:38:21;21.13;;;11.63;;
68870;SDS011;55906;52.278;6.808;2023-03-03T06:40:47;27.35;;;13.40;;
68870;SDS011;55906;52.278;6.808;2023-03-03T06:43:14;30.47;;;13.47;;
68870;SDS011;55906;52.278;6.808;2023-03-03T06:45:43;24.05;;;11.77;;
68870;SDS011;55906;52.278;6.808;2023-03-03T06:48:10;24.75;;;12.60;;
68870;SDS011;55906;52.278;6.808;2023-03-03T06:50:36;29.65;;;14.10;;
68870;SDS011;55906;52.278;6.808;2023-03-03T06:53:06;23.60;;;13.50;;
68870;SDS011;55906;52.278;6.808;2023-03-03T06:55:36;21.55;;;11.40;;
68870;SDS011;55906;52.278;6.808;2023-03-03T06:58:04;24.75;;;13.10;;
68870;SDS011;55906;52.278;6.808;2023-03-03T07:00:37;21.47;;;10.57;;
68870;SDS011;55906;52.278;6.808;2023-03-03T07:03:07;23.23;;;10.75;;
68870;SDS011;55906;52.278;6.808;2023-03-03T07:05:39;20.20;;;10.98;;
68870;SDS011;55906;52.278;6.808;2023-03-03T07:08:08;21.10;;;10.47;;
68870;SDS011;55906;52.278;6.808;2023-03-03T07:10:38;26.23;;;12.38;;
68870;SDS011;55906;52.278;6.808;2023-03-03T07:13:11;26.92;;;13.63;;
68870;SDS011;55906;52.278;6.808;2023-03-03T07:15:42;25.83;;;11.20;;
68870;SDS011;55906;52.278;6.808;2023-03-03T07:18:19;24.10;;;12.07;;
68870;SDS011;55906;52.278;6.808;2023-03-03T07:20:51;24.60;;;11.40;;
68870;SDS011;55906;52.278;6.808;2023-03-03T07:23:19;25.67;;;12.88;;
68870;SDS011;55906;52.278;6.808;2023-03-03T07:25:48;21.37;;;11.37;;
68870;SDS011;55906;52.278;6.808;2023-03-03T07:28:18;23.50;;;12.73;;
68870;SDS011;55906;52.278;6.808;2023-03-03T07:30:48;23.85;;;12.07;;
68870;SDS011;55906;52.278;6.808;2023-03-03T07:33:21;17.77;;;10.83;;
68870;SDS011;55906;52.278;6.808;2023-03-03T07:35:51;20.88;;;11.20;;
68870;SDS011;55906;52.278;6.808;2023-03-03T07:38:22;24.63;;;12.05;;
68870;SDS011;55906;52.278;6.808;2023-03-03T07:40:55;21.05;;;10.98;;
68870;SDS011;55906;52.278;6.808;2023-03-03T07:48:55;22.67;;;11.55;;
68870;SDS011;55906;52.278;6.808;2023-03-03T07:51:24;23.30;;;11.07;;
68870;SDS011;55906;52.278;6.808;2023-03-03T07:53:53;24.55;;;12.38;;
68870;SDS011;55906;52.278;6.808;2023-03-03T07:56:27;25.92;;;13.20;;
68870;SDS011;55906;52.278;6.808;2023-03-03T07:58:56;23.47;;;11.97;;
68870;SDS011;55906;52.278;6.808;2023-03-03T08:01:37;23.05;;;10.82;;
68870;SDS011;55906;52.278;6.808;2023-03-03T08:04:14;19.90;;;10.75;;
68870;SDS011;55906;52.278;6.808;2023-03-03T08:06:44;20.50;;;9.98;;
68870;SDS011;55906;52.278;6.808;2023-03-03T08:09:23;18.95;;;10.85;;
68870;SDS011;55906;52.278;6.808;2023-03-03T08:12:12;24.85;;;12.45;;
68870;SDS011;55906;52.278;6.808;2023-03-03T08:15:20;19.33;;;10.48;;
68870;SDS011;55906;52.278;6.808;2023-03-03T08:17:49;22.67;;;10.53;;
68870;SDS011;55906;52.278;6.808;2023-03-03T08:23:10;20.80;;;11.73;;
68870;SDS011;55906;52.278;6.808;2023-03-03T08:25:38;19.70;;;11.93;;
68870;SDS011;55906;52.278;6.808;2023-03-03T08:28:05;21.30;;;11.18;;
68870;SDS011;55906;52.278;6.808;2023-03-03T08:30:31;19.50;;;11.68;;
68870;SDS011;55906;52.278;6.808;2023-03-03T08:32:58;18.17;;;9.60;;
68870;SDS011;55906;52.278;6.808;2023-03-03T08:35:26;26.27;;;13.40;;
68870;SDS011;55906;52.278;6.808;2023-03-03T08:37:55;23.40;;;11.23;;
68870;SDS011;55906;52.278;6.808;2023-03-03T08:40:21;19.25;;;11.20;;
68870;SDS011;55906;52.278;6.808;2023-03-03T08:42:48;21.53;;;10.30;;
68870;SDS011;55906;52.278;6.808;2023-03-03T08:45:15;19.65;;;9.75;;
68870;SDS011;55906;52.278;6.808;2023-03-03T08:47:42;20.73;;;11.23;;
68870;SDS011;55906;52.278;6.808;2023-03-03T08:50:09;16.63;;;9.50;;
68870;SDS011;55906;52.278;6.808;2023-03-03T08:52:36;16.92;;;9.63;;
68870;SDS011;55906;52.278;6.808;2023-03-03T08:55:04;20.50;;;11.40;;
68870;SDS011;55906;52.278;6.808;2023-03-03T08:57:31;19.98;;;10.15;;
68870;SDS011;55906;52.278;6.808;2023-03-03T08:59:57;16.98;;;9.32;;
68870;SDS011;55906;52.278;6.808;2023-03-03T09:02:24;18.55;;;9.35;;
68870;SDS011;55906;52.278;6.808;2023-03-03T09:04:51;20.88;;;10.57;;
68870;SDS011;55906;52.278;6.808;2023-03-03T09:07:17;18.23;;;9.37;;
68870;SDS011;55906;52.278;6.808;2023-03-03T09:09:44;19.60;;;9.88;;
68870;SDS011;55906;52.278;6.808;2023-03-03T09:12:14;16.52;;;9.05;;
68870;SDS011;55906;52.278;6.808;2023-03-03T09:14:42;15.47;;;9.33;;
68870;SDS011;55906;52.278;6.808;2023-03-03T09:17:18;21.35;;;9.95;;
68870;SDS011;55906;52.278;6.808;2023-03-03T09:19:50;15.80;;;9.32;;
68870;SDS011;55906;52.278;6.808;2023-03-03T09:22:18;17.70;;;10.10;;
68870;SDS011;55906;52.278;6.808;2023-03-03T09:24:46;17.43;;;10.00;;
68870;SDS011;55906;52.278;6.808;2023-03-03T09:27:17;15.77;;;8.70;;
68870;SDS011;55906;52.278;6.808;2023-03-03T09:29:47;16.13;;;9.13;;
68870;SDS011;55906;52.278;6.808;2023-03-03T09:32:21;16.93;;;9.63;;
68870;SDS011;55906;52.278;6.808;2023-03-03T09:34:55;20.85;;;11.20;;
68870;SDS011;55906;52.278;6.808;2023-03-03T09:37:22;18.35;;;9.45;;
68870;SDS011;55906;52.278;6.808;2023-03-03T09:39:52;20.08;;;10.48;;
68870;SDS011;55906;52.278;6.808;2023-03-03T09:42:32;18.13;;;9.38;;
68870;SDS011;55906;52.278;6.808;2023-03-03T09:45:23;18.90;;;11.10;;
68870;SDS011;55906;52.278;6.808;2023-03-03T09:48:00;16.63;;;9.85;;
68870;SDS011;55906;52.278;6.808;2023-03-03T09:50:41;17.15;;;10.40;;
68870;SDS011;55906;52.278;6.808;2023-03-03T09:53:18;15.93;;;9.68;;
68870;SDS011;55906;52.278;6.808;2023-03-03T09:56:00;15.38;;;8.75;;
68870;SDS011;55906;52.278;6.808;2023-03-03T09:58:40;16.60;;;8.98;;
68870;SDS011;55906;52.278;6.808;2023-03-03T10:01:33;21.02;;;10.45;;
68870;SDS011;55906;52.278;6.808;2023-03-03T10:07:14;16.95;;;9.32;;
68870;SDS011;55906;52.278;6.808;2023-03-03T10:09:57;16.30;;;9.50;;
68870;SDS011;55906;52.278;6.808;2023-03-03T10:12:32;15.30;;;8.95;;
68870;SDS011;55906;52.278;6.808;2023-03-03T10:15:19;15.05;;;9.10;;
68870;SDS011;55906;52.278;6.808;2023-03-03T10:17:57;15.20;;;8.73;;
68870;SDS011;55906;52.278;6.808;2023-03-03T10:20:36;14.02;;;8.27;;
68870;SDS011;55906;52.278;6.808;2023-03-03T10:23:14;14.93;;;8.88;;
68870;SDS011;55906;52.278;6.808;2023-03-03T10:25:49;16.15;;;9.55;;
68870;SDS011;55906;52.278;6.808;2023-03-03T10:28:28;13.27;;;8.48;;
68870;SDS011;55906;52.278;6.808;2023-03-03T10:31:21;14.90;;;7.60;;
68870;SDS011;55906;52.278;6.808;2023-03-03T10:33:56;14.50;;;7.93;;
68870;SDS011;55906;52.278;6.808;2023-03-03T10:36:29;13.65;;;8.60;;
68870;SDS011;55906;52.278;6.808;2023-03-03T10:39:09;12.90;;;7.25;;
68870;SDS011;55906;52.278;6.808;2023-03-03T10:41:59;13.88;;;8.23;;
68870;SDS011;55906;52.278;6.808;2023-03-03T10:44:41;13.87;;;7.60;;
68870;SDS011;55906;52.278;6.808;2023-03-03T10:47:32;13.07;;;7.30;;
68870;SDS011;55906;52.278;6.808;2023-03-03T10:50:11;12.35;;;6.88;;
68870;SDS011;55906;52.278;6.808;2023-03-03T10:52:43;11.10;;;6.13;;
68870;SDS011;55906;52.278;6.808;2023-03-03T10:55:32;11.48;;;7.07;;
68870;SDS011;55906;52.278;6.808;2023-03-03T11:01:12;11.35;;;6.95;;
68870;SDS011;55906;52.278;6.808;2023-03-03T11:07:00;10.38;;;6.18;;
68870;SDS011;55906;52.278;6.808;2023-03-03T11:09:34;11.48;;;5.85;;
68870;SDS011;55906;52.278;6.808;2023-03-03T11:12:14;8.93;;;5.47;;
68870;SDS011;55906;52.278;6.808;2023-03-03T11:14:54;9.43;;;5.68;;
68870;SDS011;55906;52.278;6.808;2023-03-03T11:17:33;8.18;;;5.47;;
68870;SDS011;55906;52.278;6.808;2023-03-03T11:20:15;9.85;;;6.13;;
68870;SDS011;55906;52.278;6.808;2023-03-03T11:22:55;8.98;;;4.80;;
68870;SDS011;55906;52.278;6.808;2023-03-03T11:25:33;7.53;;;5.13;;
68870;SDS011;55906;52.278;6.808;2023-03-03T11:31:06;7.90;;;4.60;;
68870;SDS011;55906;52.278;6.808;2023-03-03T11:33:44;7.05;;;4.28;;
68870;SDS011;55906;52.278;6.808;2023-03-03T11:36:17;6.75;;;3.97;;
68870;SDS011;55906;52.278;6.808;2023-03-03T11:38:52;7.53;;;4.87;;
68870;SDS011;55906;52.278;6.808;2023-03-03T11:41:26;7.90;;;5.00;;
68870;SDS011;55906;52.278;6.808;2023-03-03T11:43:57;8.80;;;5.45;;
68870;SDS011;55906;52.278;6.808;2023-03-03T11:46:31;6.95;;;3.97;;
68870;SDS011;55906;52.278;6.808;2023-03-03T11:49:04;6.95;;;4.45;;
68870;SDS011;55906;52.278;6.808;2023-03-03T11:51:37;6.93;;;4.30;;
68870;SDS011;55906;52.278;6.808;2023-03-03T11:54:16;7.63;;;4.68;;
68870;SDS011;55906;52.278;6.808;2023-03-03T11:56:47;6.82;;;4.05;;
68870;SDS011;55906;52.278;6.808;2023-03-03T11:59:19;8.90;;;4.70;;
68870;SDS011;55906;52.278;6.808;2023-03-03T12:02:12;8.40;;;4.53;;
68870;SDS011;55906;52.278;6.808;2023-03-03T12:04:51;7.40;;;4.13;;
68870;SDS011;55906;52.278;6.808;2023-03-03T12:07:23;8.35;;;4.00;;
68870;SDS011;55906;52.278;6.808;2023-03-03T12:10:00;6.47;;;4.07;;
68870;SDS011;55906;52.278;6.808;2023-03-03T12:12:34;6.93;;;3.50;;
68870;SDS011;55906;52.278;6.808;2023-03-03T12:15:09;6.88;;;4.13;;
68870;SDS011;55906;52.278;6.808;2023-03-03T12:17:49;5.50;;;3.23;;
68870;SDS011;55906;52.278;6.808;2023-03-03T12:20:37;7.30;;;3.83;;
68870;SDS011;55906;52.278;6.808;2023-03-03T12:23:20;5.45;;;3.30;;
68870;SDS011;55906;52.278;6.808;2023-03-03T12:26:09;5.50;;;3.38;;
68870;SDS011;55906;52.278;6.808;2023-03-03T12:28:41;6.35;;;3.95;;
68870;SDS011;55906;52.278;6.808;2023-03-03T12:31:18;8.03;;;4.27;;
68870;SDS011;55906;52.278;6.808;2023-03-03T12:33:57;7.47;;;4.07;;
68870;SDS011;55906;52.278;6.808;2023-03-03T12:36:31;5.68;;;3.08;;
68870;SDS011;55906;52.278;6.808;2023-03-03T12:39:07;5.95;;;2.90;;
68870;SDS011;55906;52.278;6.808;2023-03-03T12:41:44;5.32;;;3.05;;
68870;SDS011;55906;52.278;6.808;2023-03-03T12:44:20;7.13;;;3.87;;
68870;SDS011;55906;52.278;6.808;2023-03-03T12:46:53;6.63;;;2.67;;
68870;SDS011;55906;52.278;6.808;2023-03-03T12:49:27;4.70;;;2.90;;
68870;SDS011;55906;52.278;6.808;2023-03-03T12:52:03;5.68;;;2.67;;
68870;SDS011;55906;52.278;6.808;2023-03-03T12:54:45;6.13;;;3.33;;
68870;SDS011;55906;52.278;6.808;2023-03-03T12:57:23;4.60;;;3.10;;
68870;SDS011;55906;52.278;6.808;2023-03-03T13:00:10;5.90;;;3.53;;
68870;SDS011;55906;52.278;6.808;2023-03-03T13:02:51;5.82;;;3.10;;
68870;SDS011;55906;52.278;6.808;2023-03-03T13:05:26;4.93;;;3.15;;
68870;SDS011;55906;52.278;6.808;2023-03-03T13:08:04;6.53;;;3.20;;
68870;SDS011;55906;52.278;6.808;2023-03-03T13:10:55;7.27;;;3.80;;
68870;SDS011;55906;52.278;6.808;2023-03-03T13:13:32;5.68;;;3.97;;
68870;SDS011;55906;52.278;6.808;2023-03-03T13:16:03;6.32;;;3.40;;
68870;SDS011;55906;52.278;6.808;2023-03-03T13:18:38;6.70;;;4.05;;
68870;SDS011;55906;52.278;6.808;2023-03-03T13:21:15;5.90;;;3.78;;
68870;SDS011;55906;52.278;6.808;2023-03-03T13:23:50;6.23;;;4.00;;
68870;SDS011;55906;52.278;6.808;2023-03-03T13:26:24;6.40;;;3.85;;
68870;SDS011;55906;52.278;6.808;2023-03-03T13:29:00;5.47;;;3.85;;
68870;SDS011;55906;52.278;6.808;2023-03-03T13:31:34;4.97;;;3.78;;
68870;SDS011;55906;52.278;6.808;2023-03-03T13:34:04;5.65;;;4.10;;
68870;SDS011;55906;52.278;6.808;2023-03-03T13:36:34;6.43;;;4.47;;
68870;SDS011;55906;52.278;6.808;2023-03-03T13:39:11;6.82;;;4.35;;
68870;SDS011;55906;52.278;6.808;2023-03-03T13:41:44;7.65;;;4.82;;
68870;SDS011;55906;52.278;6.808;2023-03-03T13:44:20;7.32;;;4.78;;
68870;SDS011;55906;52.278;6.808;2023-03-03T13:46:54;6.88;;;4.30;;
68870;SDS011;55906;52.278;6.808;2023-03-03T13:49:34;11.13;;;4.57;;
68870;SDS011;55906;52.278;6.808;2023-03-03T13:52:10;6.82;;;4.10;;
68870;SDS011;55906;52.278;6.808;2023-03-03T13:54:44;6.18;;;4.43;;
68870;SDS011;55906;52.278;6.808;2023-03-03T13:57:32;6.85;;;4.63;;
68870;SDS011;55906;52.278;6.808;2023-03-03T14:00:16;6.05;;;4.38;;
68870;SDS011;55906;52.278;6.808;2023-03-03T14:02:54;7.13;;;4.43;;
68870;SDS011;55906;52.278;6.808;2023-03-03T14:05:33;7.47;;;4.75;;
68870;SDS011;55906;52.278;6.808;2023-03-03T14:08:06;10.63;;;5.53;;
68870;SDS011;55906;52.278;6.808;2023-03-03T14:10:38;6.50;;;4.72;;
68870;SDS011;55906;52.278;6.808;2023-03-03T14:13:10;6.75;;;4.95;;
68870;SDS011;55906;52.278;6.808;2023-03-03T14:15:43;6.87;;;4.40;;
68870;SDS011;55906;52.278;6.808;2023-03-03T14:18:18;7.57;;;4.78;;
68870;SDS011;55906;52.278;6.808;2023-03-03T14:20:53;6.65;;;4.57;;
68870;SDS011;55906;52.278;6.808;2023-03-03T14:23:24;7.63;;;4.65;;
68870;SDS011;55906;52.278;6.808;2023-03-03T14:25:58;7.03;;;4.93;;
68870;SDS011;55906;52.278;6.808;2023-03-03T14:28:36;8.23;;;5.60;;
68870;SDS011;55906;52.278;6.808;2023-03-03T14:31:13;7.53;;;4.72;;
68870;SDS011;55906;52.278;6.808;2023-03-03T14:33:42;9.27;;;5.53;;
68870;SDS011;55906;52.278;6.808;2023-03-03T14:36:12;11.88;;;5.53;;
68870;SDS011;55906;52.278;6.808;2023-03-03T14:38:43;8.60;;;5.38;;
68870;SDS011;55906;52.278;6.808;2023-03-03T14:41:13;7.20;;;4.70;;
68870;SDS011;55906;52.278;6.808;2023-03-03T14:43:45;8.57;;;4.70;;
68870;SDS011;55906;52.278;6.808;2023-03-03T14:46:36;6.55;;;4.90;;
68870;SDS011;55906;52.278;6.808;2023-03-03T14:49:05;11.00;;;5.15;;
68870;SDS011;55906;52.278;6.808;2023-03-03T14:51:39;8.07;;;4.50;;
68870;SDS011;55906;52.278;6.808;2023-03-03T14:54:13;8.40;;;5.03;;
68870;SDS011;55906;52.278;6.808;2023-03-03T14:56:54;8.95;;;5.40;;
68870;SDS011;55906;52.278;6.808;2023-03-03T14:59:32;10.95;;;6.03;;
68870;SDS011;55906;52.278;6.808;2023-03-03T15:05:17;6.45;;;4.60;;
68870;SDS011;55906;52.278;6.808;2023-03-03T15:07:46;7.03;;;4.53;;
68870;SDS011;55906;52.278;6.808;2023-03-03T15:10:27;7.60;;;4.90;;
68870;SDS011;55906;52.278;6.808;2023-03-03T15:13:01;5.72;;;4.22;;
68870;SDS011;55906;52.278;6.808;2023-03-03T15:15:50;5.82;;;4.03;;
68870;SDS011;55906;52.278;6.808;2023-03-03T15:18:25;5.40;;;3.97;;
68870;SDS011;55906;52.278;6.808;2023-03-03T15:20:59;6.57;;;5.17;;